KLHM/LHM METAR and TAF weather

Enter ICAO airport designator
Station Type Date Time Source
KLHM METAR 2020/07/05 04:15 UTC NOAA

KLHM 050415Z AUTO 00000KT 10SM CLR 27/08 A2991 RMK AO1


Station Type Date Time Source
KLHM Decoded METAR 2020/07/05 04:15 UTC NOAA

Station name not available
Jul 05, 2020 - 12:15 AM EDT / 2020.07.05 0415 UTC
Wind: Calm:0
Visibility: 10 mile(s):0
Sky conditions: clear
Temperature: 80 F (27 C)
Dew Point: 46 F (8 C)
Relative Humidity: 30%
Pressure (altimeter): 29.91 in. Hg (1012 hPa)
ob: KLHM 050415Z AUTO 00000KT 10SM CLR 27/08 A2991 RMK AO1
cycle: 4

Station Type Date Time Source
KLHM TAF UTC NOAA

Error!

Example: see airport list